createdAt,value
2023-04-21T00:01:14.790Z,70.73
2023-04-21T00:03:44.347Z,70.65
2023-04-21T00:06:12.836Z,71.98
2023-04-21T00:08:40.957Z,71.88
2023-04-21T00:11:09.862Z,72.70
2023-04-21T00:13:39.111Z,73.04
2023-04-21T00:16:07.992Z,73.47
2023-04-21T00:18:37.097Z,71.04
2023-04-21T00:21:05.548Z,72.55
2023-04-21T00:23:33.816Z,72.78
2023-04-21T00:26:03.154Z,72.80
2023-04-21T00:28:31.888Z,73.62
2023-04-21T00:31:00.313Z,74.06
2023-04-21T00:33:28.658Z,74.30
2023-04-21T00:35:59.336Z,73.63
2023-04-21T00:38:29.041Z,73.45
2023-04-21T00:40:57.140Z,72.96
2023-04-21T00:43:26.165Z,73.10
2023-04-21T00:45:55.980Z,72.87
2023-04-21T00:48:24.590Z,72.88
2023-04-21T00:50:53.009Z,73.40
2023-04-21T00:53:22.461Z,72.61
2023-04-21T00:55:51.462Z,73.59
2023-04-21T00:58:19.777Z,72.12
2023-04-21T01:00:48.928Z,73.44
2023-04-21T01:03:17.516Z,71.83
2023-04-21T01:05:46.811Z,72.92
2023-04-21T01:08:15.772Z,73.42
2023-04-21T01:10:43.877Z,73.69
2023-04-21T01:13:13.762Z,73.75
2023-04-21T01:15:42.129Z,72.49
2023-04-21T01:18:10.864Z,73.59
2023-04-21T01:20:39.686Z,73.86
2023-04-21T01:23:08.087Z,73.18
2023-04-21T01:25:36.424Z,70.60
2023-04-21T01:28:05.749Z,71.50
2023-04-21T01:30:34.112Z,70.98
2023-04-21T01:33:02.744Z,71.39
2023-04-21T01:35:31.167Z,72.04
2023-04-21T01:37:59.773Z,72.43
2023-04-21T01:40:28.082Z,71.72
2023-04-21T01:42:56.633Z,72.42
2023-04-21T01:45:27.930Z,72.02
2023-04-21T01:47:56.286Z,71.38
2023-04-21T01:50:25.113Z,70.78
2023-04-21T01:52:53.531Z,69.68
2023-04-21T01:55:21.816Z,70.23
2023-04-21T01:57:50.601Z,69.70
2023-04-21T02:00:19.104Z,71.49
2023-04-21T02:02:49.152Z,70.59
2023-04-21T02:05:17.584Z,70.66
2023-04-21T02:07:46.070Z,70.73
2023-04-21T02:10:15.610Z,71.93
2023-04-21T02:12:44.745Z,71.70
2023-04-21T02:15:12.892Z,71.49
2023-04-21T02:17:42.984Z,71.38
2023-04-21T02:20:15.159Z,68.94
2023-04-21T02:22:43.348Z,68.15
2023-04-21T02:25:11.830Z,69.74
2023-04-21T02:27:40.811Z,69.44
2023-04-21T02:30:14.038Z,69.94
2023-04-21T02:32:43.798Z,67.94
2023-04-21T02:35:12.662Z,69.26
2023-04-21T02:37:41.260Z,69.24
2023-04-21T02:40:10.282Z,68.95
2023-04-21T02:42:38.760Z,68.77
2023-04-21T02:45:07.621Z,68.30
2023-04-21T02:47:37.127Z,67.01
2023-04-21T02:50:06.711Z,68.95
2023-04-21T02:52:38.318Z,68.92
2023-04-21T02:55:07.149Z,68.28
2023-04-21T02:57:35.434Z,68.54
2023-04-21T03:00:05.095Z,68.33
2023-04-21T03:02:33.887Z,68.37
2023-04-21T03:05:02.504Z,68.79
2023-04-21T03:07:32.446Z,69.09
2023-04-21T03:10:00.859Z,66.18
2023-04-21T03:12:29.014Z,67.75
2023-04-21T03:14:57.452Z,68.87
2023-04-21T03:17:26.035Z,68.13
2023-04-21T03:19:54.336Z,68.47
2023-04-21T03:22:22.576Z,68.09
2023-04-21T03:24:51.092Z,69.49
2023-04-21T03:27:19.320Z,69.47
2023-04-21T03:29:47.675Z,68.95
2023-04-21T03:32:16.309Z,69.82
2023-04-21T03:34:44.427Z,69.77
2023-04-21T03:37:12.821Z,68.37
2023-04-21T03:39:41.289Z,69.38
2023-04-21T03:42:09.749Z,69.19
2023-04-21T03:44:37.914Z,69.49
2023-04-21T03:47:06.294Z,69.40
2023-04-21T03:49:34.972Z,69.57
2023-04-21T03:52:03.584Z,67.45
2023-04-21T03:54:32.297Z,68.53
2023-04-21T03:57:00.518Z,68.13
2023-04-21T03:59:28.854Z,68.89
2023-04-21T04:01:57.252Z,68.33
2023-04-21T04:04:26.029Z,68.04
2023-04-21T04:06:54.723Z,67.12
2023-04-21T04:09:23.347Z,65.90
2023-04-21T04:11:51.860Z,65.33
2023-04-21T04:14:20.137Z,66.38
2023-04-21T04:16:48.344Z,67.16
2023-04-21T04:19:16.837Z,65.81
2023-04-21T04:21:46.577Z,65.84
2023-04-21T04:24:16.748Z,65.56
2023-04-21T04:26:45.412Z,64.69
2023-04-21T04:29:14.357Z,65.76
2023-04-21T04:31:42.961Z,64.35
2023-04-21T04:34:11.702Z,63.57
2023-04-21T04:36:39.996Z,63.72
2023-04-21T04:39:10.352Z,62.97
2023-04-21T04:41:38.760Z,61.83
2023-04-21T04:44:08.071Z,63.48
2023-04-21T04:46:36.765Z,63.11
2023-04-21T04:49:05.530Z,62.66
2023-04-21T04:51:34.124Z,62.05
2023-04-21T04:54:02.745Z,62.20
2023-04-21T04:56:31.175Z,64.75
2023-04-21T04:58:59.346Z,65.09
2023-04-21T05:01:30.856Z,64.41
2023-04-21T05:03:59.404Z,63.98
2023-04-21T05:06:28.716Z,63.57
2023-04-21T05:08:56.781Z,61.91
2023-04-21T05:11:25.573Z,59.55
2023-04-21T05:13:54.411Z,61.55
2023-04-21T05:16:22.626Z,60.35
2023-04-21T05:18:53.872Z,59.52
2023-04-21T05:21:29.263Z,59.72
2023-04-21T05:23:58.499Z,59.59
2023-04-21T05:26:29.002Z,59.69
2023-04-21T05:28:58.271Z,58.94
2023-04-21T05:31:27.245Z,58.58
2023-04-21T05:33:55.641Z,58.91
2023-04-21T05:36:25.112Z,58.89
2023-04-21T05:38:54.103Z,56.52
2023-04-21T05:41:22.725Z,56.11
2023-04-21T05:43:51.079Z,55.89
2023-04-21T05:46:19.547Z,56.55
2023-04-21T05:48:47.790Z,56.03
2023-04-21T05:51:16.572Z,57.43
2023-04-21T05:53:45.852Z,56.87
2023-04-21T05:56:14.486Z,55.64
2023-04-21T05:58:42.869Z,56.35
2023-04-21T06:01:13.023Z,55.46
2023-04-21T06:03:41.871Z,54.91
2023-04-21T06:06:11.635Z,53.51
2023-04-21T06:08:39.753Z,55.70
2023-04-21T06:11:08.337Z,56.50
2023-04-21T06:13:38.539Z,55.97
2023-04-21T06:16:08.181Z,53.67
2023-04-21T06:18:36.352Z,53.79
2023-04-21T06:21:04.979Z,53.66
2023-04-21T06:23:33.619Z,53.10
2023-04-21T06:26:07.106Z,52.21
2023-04-21T06:28:37.030Z,53.62
2023-04-21T06:31:08.441Z,53.09
2023-04-21T06:33:37.732Z,52.46
2023-04-21T06:36:06.532Z,53.35
2023-04-21T06:38:34.536Z,51.03
2023-04-21T06:41:04.846Z,51.15
2023-04-21T06:43:33.122Z,51.56
2023-04-21T06:46:01.305Z,52.57
2023-04-21T06:48:30.364Z,53.64
2023-04-21T06:50:58.745Z,52.92
2023-04-21T06:53:27.173Z,51.50
2023-04-21T06:55:55.953Z,50.57
2023-04-21T06:58:24.094Z,51.59
2023-04-21T07:00:52.304Z,52.11
2023-04-21T07:03:21.265Z,50.50
2023-04-21T07:05:49.597Z,50.21
2023-04-21T07:08:17.671Z,51.39
2023-04-21T07:10:46.444Z,48.85
2023-04-21T07:13:15.967Z,48.62
2023-04-21T07:15:44.171Z,48.57
2023-04-21T07:18:12.727Z,49.04
2023-04-21T07:20:41.106Z,48.70
2023-04-21T07:23:09.252Z,46.12
2023-04-21T07:25:38.036Z,48.22
2023-04-21T07:28:06.605Z,48.18
2023-04-21T07:30:34.664Z,49.34
2023-04-21T07:33:03.710Z,48.59
2023-04-21T07:35:31.998Z,45.48
2023-04-21T07:38:00.429Z,45.49
2023-04-21T07:40:29.155Z,44.78
2023-04-21T07:42:57.314Z,43.89
2023-04-21T07:45:26.479Z,45.15
2023-04-21T07:47:55.053Z,43.82
2023-04-21T07:50:23.494Z,42.32
2023-04-21T07:52:51.618Z,43.67
2023-04-21T07:55:20.378Z,41.89
2023-04-21T07:57:49.027Z,40.61
2023-04-21T08:00:17.731Z,43.01
2023-04-21T08:02:46.640Z,42.46
2023-04-21T08:05:15.218Z,40.80
2023-04-21T08:07:43.730Z,40.48
2023-04-21T08:10:13.636Z,39.66
2023-04-21T08:12:42.020Z,39.44
2023-04-21T08:15:12.516Z,40.08
2023-04-21T08:17:41.344Z,36.44
2023-04-21T08:20:10.419Z,38.58
2023-04-21T08:22:41.136Z,36.48
2023-04-21T08:25:09.921Z,38.07
2023-04-21T08:27:39.396Z,37.64
2023-04-21T08:30:08.368Z,37.85
2023-04-21T08:32:37.211Z,36.31
2023-04-21T08:35:05.726Z,36.74
2023-04-21T08:37:37.229Z,35.73
2023-04-21T08:40:07.253Z,35.37
2023-04-21T08:42:37.094Z,36.27
2023-04-21T08:45:06.381Z,38.22
2023-04-21T08:47:36.893Z,38.25
2023-04-21T08:50:07.876Z,34.65
2023-04-21T08:52:36.391Z,34.26
2023-04-21T08:55:07.633Z,34.99
2023-04-21T08:57:36.146Z,34.87
2023-04-21T09:00:07.904Z,35.27
2023-04-21T09:03:00.227Z,34.88
2023-04-21T09:05:31.897Z,37.12
2023-04-21T09:08:13.335Z,36.83
2023-04-21T09:10:53.367Z,37.56
2023-04-21T09:13:39.021Z,37.04
2023-04-21T09:16:18.053Z,37.98
2023-04-21T09:18:47.205Z,36.81
2023-04-21T09:21:17.942Z,37.92
2023-04-21T09:23:49.677Z,35.68
2023-04-21T09:26:19.741Z,35.08
2023-04-21T09:28:49.861Z,34.95
2023-04-21T09:31:20.921Z,37.14
2023-04-21T09:33:58.720Z,34.06
2023-04-21T09:36:30.119Z,33.84
2023-04-21T09:41:33.493Z,33.22
2023-04-21T09:44:04.170Z,33.36
2023-04-21T09:46:37.375Z,32.94
2023-04-21T09:49:06.821Z,31.65
2023-04-21T09:54:28.206Z,31.60
2023-04-21T09:57:04.875Z,32.95
2023-04-21T09:59:36.965Z,35.11
2023-04-21T10:02:07.266Z,35.63
2023-04-21T10:04:38.173Z,35.03
2023-04-21T10:07:06.928Z,34.70
2023-04-21T10:09:42.018Z,32.74
2023-04-21T10:12:10.468Z,32.93
2023-04-21T10:14:38.672Z,33.62
2023-04-21T10:17:10.154Z,34.23
2023-04-21T10:19:49.603Z,34.82
2023-04-21T10:22:28.882Z,32.78
2023-04-21T10:24:58.860Z,33.23
2023-04-21T10:27:43.399Z,33.66
2023-04-21T10:30:18.735Z,35.44
2023-04-21T10:32:47.241Z,32.76
2023-04-21T10:35:24.807Z,35.87
2023-04-21T10:37:53.407Z,36.75
2023-04-21T10:40:43.834Z,33.67
2023-04-21T10:43:47.459Z,36.33
2023-04-21T10:46:38.385Z,35.83
2023-04-21T10:49:21.038Z,36.02
2023-04-21T10:52:07.189Z,36.74
2023-04-21T10:54:43.742Z,38.69
2023-04-21T10:57:16.302Z,37.61
2023-04-21T10:59:46.911Z,38.16
2023-04-21T11:02:17.293Z,37.33
2023-04-21T11:04:48.791Z,38.77
2023-04-21T11:07:19.786Z,40.48
2023-04-21T11:09:50.391Z,39.65
2023-04-21T11:12:33.592Z,38.96
2023-04-21T11:15:08.589Z,38.42
2023-04-21T11:17:39.940Z,38.12
2023-04-21T11:20:08.945Z,37.91
2023-04-21T11:22:39.001Z,36.80
2023-04-21T11:25:17.885Z,38.14
2023-04-21T11:27:56.871Z,40.88
2023-04-21T11:30:35.418Z,41.78
2023-04-21T11:33:04.305Z,38.79
2023-04-21T11:35:32.454Z,41.63
2023-04-21T11:38:06.593Z,37.72
2023-04-21T11:40:48.593Z,40.45
2023-04-21T11:43:17.565Z,40.16
2023-04-21T11:45:50.032Z,38.16
2023-04-21T11:48:19.739Z,38.40
2023-04-21T11:50:51.739Z,39.75
2023-04-21T11:53:20.117Z,41.45
2023-04-21T11:55:48.783Z,38.63
2023-04-21T11:58:17.936Z,38.17
2023-04-21T12:00:46.625Z,38.68
2023-04-21T12:03:16.404Z,39.60
2023-04-21T12:05:44.843Z,42.10
2023-04-21T12:08:16.575Z,38.86
2023-04-21T12:10:47.126Z,38.99
2023-04-21T12:13:25.244Z,38.00
2023-04-21T12:15:53.830Z,39.88
2023-04-21T12:18:22.300Z,39.32
2023-04-21T12:20:52.226Z,39.76
2023-04-21T12:23:21.007Z,40.01
2023-04-21T12:25:50.079Z,40.03
2023-04-21T12:28:18.471Z,39.25
2023-04-21T12:30:47.005Z,41.11
2023-04-21T12:33:15.148Z,41.89
2023-04-21T12:35:43.470Z,42.58
2023-04-21T12:38:11.884Z,40.71
2023-04-21T12:40:40.100Z,40.93
2023-04-21T12:43:08.226Z,41.12
2023-04-21T12:45:36.961Z,39.20
2023-04-21T12:48:06.718Z,40.38
2023-04-21T12:50:35.576Z,38.69
2023-04-21T12:53:04.381Z,39.89
2023-04-21T12:55:36.098Z,38.96
2023-04-21T12:58:05.085Z,37.69
2023-04-21T13:00:35.942Z,40.44
2023-04-21T13:03:04.682Z,41.13
2023-04-21T13:05:33.089Z,41.14
2023-04-21T13:08:01.221Z,38.42
2023-04-21T13:10:29.692Z,39.44
2023-04-21T13:12:58.019Z,40.04
2023-04-21T13:15:26.504Z,38.39
2023-04-21T13:17:55.105Z,38.59
2023-04-21T13:20:23.495Z,42.67
2023-04-21T13:22:51.885Z,39.45
2023-04-21T13:25:20.304Z,41.10
2023-04-21T13:27:48.426Z,41.03
2023-04-21T13:30:17.859Z,40.86
2023-04-21T13:32:46.587Z,39.39
2023-04-21T13:35:14.757Z,40.96
2023-04-21T13:37:43.029Z,40.25
2023-04-21T13:40:11.861Z,41.63
2023-04-21T13:42:40.699Z,39.88
2023-04-21T13:45:09.570Z,39.29
2023-04-21T13:47:38.124Z,39.13
2023-04-21T13:50:07.193Z,41.94
2023-04-21T13:52:36.860Z,39.35
2023-04-21T13:55:06.148Z,38.61
2023-04-21T13:57:34.607Z,41.43
2023-04-21T14:00:06.191Z,39.68
2023-04-21T14:02:35.187Z,39.29
2023-04-21T14:05:04.705Z,40.82
2023-04-21T14:07:33.789Z,38.25
2023-04-21T14:10:02.795Z,38.66
2023-04-21T14:12:31.292Z,39.08
2023-04-21T14:14:59.564Z,38.68
2023-04-21T14:17:30.264Z,39.68
2023-04-21T14:19:58.786Z,38.96
2023-04-21T14:22:28.394Z,39.09
2023-04-21T14:24:56.910Z,37.28
2023-04-21T14:27:24.995Z,38.15
2023-04-21T14:29:53.245Z,37.54
2023-04-21T14:32:22.083Z,40.89
2023-04-21T14:34:53.388Z,40.45
2023-04-21T14:37:27.141Z,40.00
2023-04-21T14:39:55.421Z,40.22
2023-04-21T14:42:23.988Z,38.30
2023-04-21T14:44:52.490Z,40.07
2023-04-21T14:47:21.728Z,36.62
2023-04-21T14:49:54.673Z,38.54
2023-04-21T14:52:27.296Z,37.19
2023-04-21T14:54:55.898Z,37.69
2023-04-21T14:57:27.243Z,38.40
2023-04-21T14:59:59.006Z,38.56
2023-04-21T15:02:27.306Z,37.58
2023-04-21T15:04:56.808Z,38.75
2023-04-21T15:07:25.238Z,37.59
2023-04-21T15:09:55.435Z,37.30
2023-04-21T15:12:24.379Z,37.34
2023-04-21T15:14:52.553Z,38.30
2023-04-21T15:17:20.657Z,37.92
2023-04-21T15:19:49.481Z,38.30
2023-04-21T15:22:17.751Z,38.62
2023-04-21T15:24:46.398Z,39.16
2023-04-21T15:27:14.860Z,38.09
2023-04-21T15:29:43.181Z,38.40
2023-04-21T15:32:11.420Z,38.08
2023-04-21T15:34:40.119Z,37.85
2023-04-21T15:37:08.234Z,37.35
2023-04-21T15:39:36.682Z,39.87
2023-04-21T15:42:06.185Z,38.77
2023-04-21T15:44:34.542Z,39.11
2023-04-21T15:47:03.479Z,37.70
2023-04-21T15:49:32.189Z,38.02
2023-04-21T15:52:02.701Z,37.50
2023-04-21T15:54:31.370Z,37.72
2023-04-21T15:57:04.571Z,37.96
2023-04-21T15:59:32.834Z,38.04
2023-04-21T16:02:01.419Z,37.70
2023-04-21T16:04:30.424Z,37.60
2023-04-21T16:06:58.740Z,37.31
2023-04-21T16:09:27.076Z,37.74
2023-04-21T16:11:57.087Z,38.14
2023-04-21T16:14:25.539Z,38.42
2023-04-21T16:16:53.658Z,40.24
2023-04-21T16:19:22.358Z,39.20
2023-04-21T16:21:50.966Z,39.12
2023-04-21T16:24:19.075Z,41.09
2023-04-21T16:26:47.870Z,39.35
2023-04-21T16:29:16.224Z,39.12
2023-04-21T16:31:44.454Z,39.65
2023-04-21T16:34:14.142Z,41.47
2023-04-21T16:36:42.349Z,44.01
2023-04-21T16:39:10.820Z,45.10
2023-04-21T16:41:39.477Z,45.35
2023-04-21T16:44:07.547Z,45.88
2023-04-21T16:46:36.138Z,44.25
2023-04-21T16:49:05.119Z,45.12
2023-04-21T16:51:33.445Z,45.92
2023-04-21T16:54:01.564Z,46.93
2023-04-21T16:56:30.084Z,45.73
2023-04-21T16:58:58.414Z,45.37
2023-04-21T17:01:29.749Z,44.54
2023-04-21T17:04:01.040Z,43.79
2023-04-21T17:06:29.381Z,44.41
2023-04-21T17:08:59.950Z,44.68
2023-04-21T17:11:28.793Z,44.88
2023-04-21T17:13:57.214Z,44.39
2023-04-21T17:16:28.575Z,43.07
2023-04-21T17:18:57.567Z,44.79
2023-04-21T17:21:28.279Z,46.61
2023-04-21T17:23:56.444Z,44.81
2023-04-21T17:26:24.919Z,46.55
2023-04-21T17:28:53.433Z,47.78
2023-04-21T17:31:21.673Z,48.78
2023-04-21T17:33:52.816Z,49.60
2023-04-21T17:36:21.276Z,46.79
2023-04-21T17:38:50.069Z,48.29
2023-04-21T17:41:18.372Z,48.43
2023-04-21T17:43:47.134Z,49.27
2023-04-21T17:46:15.415Z,48.17
2023-04-21T17:48:43.726Z,48.06
2023-04-21T17:51:14.097Z,48.52
2023-04-21T17:53:42.615Z,48.17
2023-04-21T17:56:11.646Z,47.02
2023-04-21T17:58:41.412Z,47.75
2023-04-21T18:01:09.953Z,47.75
2023-04-21T18:03:41.594Z,47.45
2023-04-21T18:06:11.283Z,47.23
2023-04-21T18:08:41.206Z,47.84
2023-04-21T18:11:09.450Z,48.08
2023-04-21T18:13:37.662Z,48.06
2023-04-21T18:16:06.493Z,47.70
2023-04-21T18:18:35.198Z,47.38
2023-04-21T18:21:04.208Z,47.97
2023-04-21T18:23:32.737Z,47.44
2023-04-21T18:26:02.133Z,48.18
2023-04-21T18:28:30.838Z,48.71
2023-04-21T18:30:59.721Z,48.59
2023-04-21T18:33:28.758Z,49.04
2023-04-21T18:35:56.875Z,49.43
2023-04-21T18:38:25.673Z,49.89
2023-04-21T18:40:54.109Z,49.82
2023-04-21T18:43:22.701Z,50.12
2023-04-21T18:45:51.271Z,50.74
2023-04-21T18:48:19.733Z,50.41
2023-04-21T18:50:48.015Z,50.36
2023-04-21T18:53:16.885Z,50.46
2023-04-21T18:55:45.689Z,50.86
2023-04-21T18:58:14.838Z,50.78
2023-04-21T19:00:44.147Z,51.20
2023-04-21T19:03:12.735Z,51.49
2023-04-21T19:05:41.312Z,51.54
2023-04-21T19:08:10.250Z,50.72
2023-04-21T19:10:38.760Z,50.89
2023-04-21T19:13:07.153Z,51.49
2023-04-21T19:15:35.870Z,51.12
2023-04-21T19:18:05.156Z,51.29
2023-04-21T19:20:35.910Z,51.08
2023-04-21T19:23:05.698Z,50.98
2023-04-21T19:25:35.881Z,52.07
2023-04-21T19:28:06.535Z,51.72
2023-04-21T19:30:34.937Z,51.93
2023-04-21T19:33:05.477Z,51.13
2023-04-21T19:35:35.508Z,50.29
2023-04-21T19:38:03.954Z,50.76
2023-04-21T19:40:32.703Z,51.15
2023-04-21T19:43:01.978Z,50.84
2023-04-21T19:45:30.659Z,51.11
2023-04-21T19:47:59.506Z,50.22
2023-04-21T19:50:28.308Z,49.45
2023-04-21T19:52:56.716Z,49.31
2023-04-21T19:55:26.462Z,49.61
2023-04-21T19:57:55.260Z,49.54
2023-04-21T20:00:25.203Z,49.25
2023-04-21T20:02:54.128Z,48.94
2023-04-21T20:05:22.652Z,48.67
2023-04-21T20:07:50.997Z,48.73
2023-04-21T20:10:19.670Z,48.60
2023-04-21T20:12:47.827Z,48.23
2023-04-21T20:15:17.031Z,48.54
2023-04-21T20:17:47.770Z,48.46
2023-04-21T20:20:17.562Z,48.06
2023-04-21T20:22:46.160Z,48.03
2023-04-21T20:25:14.380Z,47.87
2023-04-21T20:27:42.871Z,48.36
2023-04-21T20:30:11.811Z,48.94
2023-04-21T20:32:40.475Z,48.12
2023-04-21T20:35:09.168Z,49.09
2023-04-21T20:37:37.856Z,49.93
2023-04-21T20:40:08.324Z,51.56
2023-04-21T20:42:39.575Z,53.56
2023-04-21T20:45:09.259Z,54.37
2023-04-21T20:47:37.724Z,56.67
2023-04-21T20:50:07.390Z,58.56
2023-04-21T20:52:36.906Z,58.60
2023-04-21T20:55:05.729Z,53.25
2023-04-21T20:57:33.864Z,55.10
2023-04-21T21:00:05.561Z,56.42
2023-04-21T21:02:34.810Z,60.01
2023-04-21T21:05:04.350Z,61.86
2023-04-21T21:07:32.694Z,61.52
2023-04-21T21:10:01.483Z,64.51
2023-04-21T21:12:29.860Z,64.58
2023-04-21T21:14:58.082Z,63.81
2023-04-21T21:17:26.222Z,64.14
2023-04-21T21:19:56.157Z,65.07
2023-04-21T21:22:24.289Z,65.06
2023-04-21T21:24:52.563Z,66.35
2023-04-21T21:27:21.203Z,66.67
2023-04-21T21:29:49.689Z,66.80
2023-04-21T21:32:17.984Z,67.34
2023-04-21T21:34:46.542Z,68.22
2023-04-21T21:37:14.840Z,68.24
2023-04-21T21:39:43.768Z,68.31
2023-04-21T21:42:12.812Z,68.48
2023-04-21T21:44:41.141Z,67.21
2023-04-21T21:47:09.455Z,66.77
2023-04-21T21:49:41.118Z,66.80
2023-04-21T21:52:09.742Z,66.10
2023-04-21T21:54:38.251Z,65.44
2023-04-21T21:57:06.480Z,63.47
2023-04-21T21:59:34.942Z,66.04
2023-04-21T22:02:03.451Z,65.31
2023-04-21T22:04:32.186Z,64.64
2023-04-21T22:07:00.750Z,63.82
2023-04-21T22:09:29.441Z,63.99
2023-04-21T22:11:58.133Z,65.02
2023-04-21T22:14:27.035Z,65.69
2023-04-21T22:16:57.302Z,66.40
2023-04-21T22:19:26.032Z,66.65
2023-04-21T22:21:54.797Z,65.53
2023-04-21T22:24:22.861Z,65.72
2023-04-21T22:26:51.213Z,66.93
2023-04-21T22:29:19.644Z,66.77
2023-04-21T22:31:48.006Z,67.76
2023-04-21T22:34:19.829Z,68.19
2023-04-21T22:36:48.068Z,68.59
2023-04-21T22:39:17.125Z,69.03
2023-04-21T22:44:14.825Z,69.50
2023-04-21T22:46:43.352Z,70.11
2023-04-21T22:49:11.466Z,70.47
2023-04-21T22:51:40.278Z,70.32
2023-04-21T22:54:08.800Z,70.14
2023-04-21T22:56:37.245Z,69.72
2023-04-21T22:59:06.792Z,69.84
2023-04-21T23:01:35.172Z,68.45
2023-04-21T23:04:03.610Z,67.98
2023-04-21T23:06:34.897Z,66.97
2023-04-21T23:09:04.175Z,68.42
2023-04-21T23:11:32.753Z,68.64
2023-04-21T23:14:00.935Z,68.66
2023-04-21T23:16:29.426Z,68.51
2023-04-21T23:18:57.600Z,69.23
2023-04-21T23:21:26.345Z,70.87
2023-04-21T23:23:54.855Z,70.46
2023-04-21T23:26:23.057Z,71.50
2023-04-21T23:28:51.369Z,72.87
2023-04-21T23:31:20.062Z,74.52
2023-04-21T23:33:48.374Z,75.64
2023-04-21T23:36:16.938Z,75.73
2023-04-21T23:38:45.438Z,74.64
2023-04-21T23:41:13.642Z,72.91
2023-04-21T23:43:42.046Z,73.56
2023-04-21T23:46:10.858Z,73.11
2023-04-21T23:48:39.060Z,73.62
2023-04-21T23:51:07.855Z,72.62
2023-04-21T23:53:36.411Z,72.65
2023-04-21T23:56:04.693Z,73.53
2023-04-21T23:58:33.059Z,73.44
